Terminal Aerodrome Forecast
Issued by NWS

Home | Current Version | Previous Version | Text Only | Print | Product List | Glossary On
Versions: 1 2 3 4 5 6 7 8 9 10 11 12 13 14
000
FTUS45 KRIW 131730
TAFCPR
TAF
KCPR 131730Z 1318/1418 26008KT P6SM SCT200
     FM132300 33006KT P6SM VCSH BKN100
     FM140200 36010KT 3SM -SN SCT015 OVC025
     FM140800 29010KT P6SM BKN025=

USA.gov is the U.S. government's official web portal to all federal, state and local government web resources and services.